Time;durP1;ratioP1;P1;durP2;ratioP2;P2;SDS_P1;SDS_P2;PMS_P1;PMS_P2;Temp;Humidity;BMP_temperature;BMP_pressure;BME280_temperature;BME280_humidity;BME280_pressure;Samples;Min_cycle;Max_cycle;Signal;HPM_P1;HPM_P2
2021/07/29 00:02:24;;;;;;;2.47;2.28;;;;;;;17.82;87.44;98526.13;4976715;28;104493;-63
2021/07/29 00:04:53;;;;;;;2.67;2.40;;;;;;;17.84;86.92;98521.47;4981384;28;103510;-63
2021/07/29 00:07:21;;;;;;;2.10;2.00;;;;;;;17.77;86.98;98531.09;4976145;28;102753;-62
2021/07/29 00:09:49;;;;;;;2.65;2.40;;;;;;;17.71;87.63;98534.44;4972811;28;102760;-63
2021/07/29 00:12:19;;;;;;;2.50;1.88;;;;;;;17.69;87.65;98539.06;4959412;28;103278;-63
2021/07/29 00:14:50;;;;;;;3.55;3.25;;;;;;;17.63;87.63;98532.53;4953698;28;102973;-62
2021/07/29 00:17:29;;;;;;;2.72;2.40;;;;;;;17.57;87.88;98527.81;4975725;28;103611;-63
2021/07/29 00:19:57;;;;;;;2.67;2.47;;;;;;;17.52;88.07;98530.09;4963040;28;102667;-62
2021/07/29 00:22:25;;;;;;;2.58;2.38;;;;;;;17.47;88.37;98532.41;4974847;28;103293;-63
2021/07/29 00:24:53;;;;;;;2.20;2.10;;;;;;;17.49;88.05;98529.63;4975407;28;103396;-63
2021/07/29 00:27:22;;;;;;;2.80;2.60;;;;;;;17.42;88.23;98529.41;4974522;28;102531;-63
2021/07/29 00:29:56;;;;;;;2.60;2.40;;;;;;;17.37;88.18;98534.38;4966852;28;103025;-63
2021/07/29 00:32:24;;;;;;;3.10;2.78;;;;;;;17.32;88.79;98534.00;4961959;28;103722;-63
2021/07/29 00:34:52;;;;;;;2.60;2.40;;;;;;;17.32;88.69;98536.66;4964115;28;103807;-64
2021/07/29 00:37:20;;;;;;;4.72;2.95;;;;;;;17.22;89.35;98538.59;4974068;28;102724;-63
2021/07/29 00:39:48;;;;;;;2.80;2.60;;;;;;;17.02;90.69;98529.94;4973099;28;103023;-63
2021/07/29 00:42:16;;;;;;;3.10;2.85;;;;;;;17.02;90.72;98534.44;4959572;28;103623;-63
2021/07/29 00:44:46;;;;;;;2.45;2.25;;;;;;;16.94;91.53;98534.38;4967410;28;104368;-64
2021/07/29 00:47:17;;;;;;;3.08;2.88;;;;;;;16.99;90.53;98532.94;4961698;28;102686;-62
2021/07/29 00:49:47;;;;;;;3.20;2.90;;;;;;;16.89;91.08;98526.00;4963584;28;102629;-63
2021/07/29 00:52:16;;;;;;;3.45;2.63;;;;;;;16.89;90.90;98523.34;4978684;28;104425;-63
2021/07/29 00:54:45;;;;;;;3.05;2.72;;;;;;;16.91;90.97;98524.84;4967073;28;103477;-63
2021/07/29 00:57:13;;;;;;;2.53;2.33;;;;;;;16.89;91.04;98526.00;4980955;28;102526;-61
2021/07/29 00:59:41;;;;;;;2.50;2.30;;;;;;;16.87;90.99;98522.66;4955191;28;102791;-61
2021/07/29 01:02:11;;;;;;;3.55;2.80;;;;;;;16.89;90.64;98520.69;4953236;28;104364;-62
2021/07/29 01:04:39;;;;;;;2.88;2.55;;;;;;;16.81;91.15;98524.94;4968304;28;103094;-61
2021/07/29 01:07:07;;;;;;;3.70;2.50;;;;;;;16.75;91.10;98525.56;4956499;28;102809;-61
2021/07/29 01:09:35;;;;;;;2.30;2.10;;;;;;;16.76;91.16;98521.91;4981375;28;103008;-61
2021/07/29 01:12:04;;;;;;;2.35;2.15;;;;;;;16.70;91.48;98524.38;4964437;28;103534;-62
2021/07/29 01:14:33;;;;;;;2.72;2.47;;;;;;;16.65;91.11;98524.81;4969973;28;103202;-61
2021/07/29 01:17:01;;;;;;;2.40;2.20;;;;;;;16.70;90.92;98529.69;4960447;28;102663;-62
2021/07/29 01:19:32;;;;;;;2.40;2.10;;;;;;;16.69;90.84;98517.34;4962835;28;103211;-62
2021/07/29 01:22:01;;;;;;;2.70;2.50;;;;;;;16.66;90.72;98518.47;4973581;28;104711;-63
2021/07/29 01:24:29;;;;;;;2.53;2.25;;;;;;;16.63;90.82;98518.78;4979743;28;103227;-63
2021/07/29 01:26:57;;;;;;;3.10;2.42;;;;;;;16.50;92.09;98525.47;4975403;28;103773;-62
2021/07/29 01:29:25;;;;;;;2.85;2.63;;;;;;;16.46;91.96;98524.94;4962367;28;102746;-62
2021/07/29 01:31:54;;;;;;;3.00;2.70;;;;;;;16.41;92.06;98519.22;4959205;28;104538;-63
2021/07/29 01:34:22;;;;;;;3.40;3.10;;;;;;;16.37;92.02;98515.16;4959055;28;109029;-62
2021/07/29 01:36:50;;;;;;;3.25;2.90;;;;;;;16.41;92.00;98521.88;4978471;28;102765;-62
2021/07/29 01:39:19;;;;;;;2.92;2.63;;;;;;;16.40;91.60;98520.19;4958906;28;102795;-63
2021/07/29 01:41:47;;;;;;;2.72;2.42;;;;;;;16.32;92.36;98508.59;4965799;28;104558;-62
2021/07/29 01:44:15;;;;;;;4.95;3.00;;;;;;;16.24;92.44;98514.69;4954517;28;104465;-62
2021/07/29 01:46:43;;;;;;;3.38;2.78;;;;;;;16.25;92.69;98511.88;4959420;28;103014;-62
2021/07/29 01:49:11;;;;;;;2.70;2.50;;;;;;;16.26;93.09;98507.38;4971560;28;103047;-62
2021/07/29 01:51:39;;;;;;;2.67;2.47;;;;;;;16.25;92.42;98506.53;4973451;28;103759;-62
2021/07/29 01:54:08;;;;;;;2.83;2.40;;;;;;;16.34;92.10;98509.28;4961771;28;104354;-63
2021/07/29 01:56:37;;;;;;;2.33;2.13;;;;;;;16.37;91.85;98504.50;4949494;28;103046;-62
2021/07/29 01:59:06;;;;;;;5.22;2.58;;;;;;;16.31;92.21;98513.09;4977408;28;103101;-62
2021/07/29 02:01:37;;;;;;;3.65;2.78;;;;;;;16.35;91.99;98516.31;4973594;28;103405;-62
2021/07/29 02:04:05;;;;;;;2.42;2.22;;;;;;;16.35;92.34;98513.63;4973277;28;104416;-62
2021/07/29 02:06:35;;;;;;;2.92;2.22;;;;;;;16.37;92.32;98509.81;4955922;28;102852;-62
2021/07/29 02:09:04;;;;;;;3.30;3.00;;;;;;;16.45;91.63;98514.44;4978891;28;102654;-62
2021/07/29 02:11:34;;;;;;;2.45;2.25;;;;;;;16.53;91.12;98514.50;4980203;28;103171;-63
2021/07/29 02:14:05;;;;;;;3.50;2.30;;;;;;;16.51;91.05;98514.63;4964974;28;103329;-62
2021/07/29 02:16:33;;;;;;;2.08;1.98;;;;;;;16.46;91.24;98511.59;4963412;28;102763;-62
2021/07/29 02:19:01;;;;;;;2.22;2.03;;;;;;;16.51;91.38;98516.47;4982856;28;102805;-62
2021/07/29 02:21:30;;;;;;;2.42;2.22;;;;;;;16.52;91.03;98519.00;4969420;28;103403;-62
2021/07/29 02:23:58;;;;;;;2.83;2.63;;;;;;;16.54;90.90;98516.19;4978000;28;103385;-62
2021/07/29 02:26:26;;;;;;;3.35;2.55;;;;;;;16.54;90.78;98518.84;4980560;28;102525;-62
2021/07/29 02:28:54;;;;;;;3.85;2.15;;;;;;;16.53;90.44;98514.50;4982518;28;102606;-62
2021/07/29 02:31:23;;;;;;;2.75;2.15;;;;;;;16.50;90.38;98515.66;4962677;28;104502;-63
2021/07/29 02:33:51;;;;;;;2.67;2.47;;;;;;;16.40;91.20;98522.84;4966350;28;103853;-62
2021/07/29 02:36:19;;;;;;;2.33;2.10;;;;;;;16.44;91.04;98524.25;4966993;28;102647;-62
2021/07/29 02:38:47;;;;;;;2.28;2.03;;;;;;;16.42;91.08;98526.22;4973949;28;102733;-63
2021/07/29 02:41:15;;;;;;;2.85;2.40;;;;;;;16.40;91.45;98520.19;4963582;28;103315;-62
2021/07/29 02:43:43;;;;;;;2.30;2.10;;;;;;;16.41;91.32;98527.22;4961072;28;103263;-62
2021/07/29 02:46:11;;;;;;;4.78;2.55;;;;;;;16.42;90.77;98528.88;4953997;28;102778;-62
2021/07/29 02:48:41;;;;;;;2.42;2.25;;;;;;;16.44;91.51;98526.91;4956180;28;102769;-62
2021/07/29 02:51:09;;;;;;;2.35;2.15;;;;;;;16.47;91.56;98526.63;4972553;28;103323;-63
2021/07/29 02:53:37;;;;;;;2.70;2.50;;;;;;;16.46;91.46;98530.25;4960518;28;103676;-63
2021/07/29 02:56:08;;;;;;;2.92;2.53;;;;;;;16.47;91.37;98529.28;4978101;28;102633;-62
2021/07/29 02:58:36;;;;;;;2.80;2.60;;;;;;;16.48;91.45;98533.59;4983014;28;102708;-62
2021/07/29 03:01:05;;;;;;;3.45;2.15;;;;;;;16.49;91.73;98534.44;4962243;28;103323;-62
2021/07/29 03:03:34;;;;;;;5.03;3.25;;;;;;;16.50;92.07;98531.66;4980347;28;103140;-62
2021/07/29 03:06:03;;;;;;;3.30;3.00;;;;;;;16.54;91.76;98533.03;4980733;28;102804;-62
2021/07/29 03:08:32;;;;;;;2.65;2.45;;;;;;;16.56;91.68;98533.72;4976221;28;102718;-63
2021/07/29 03:11:00;;;;;;;3.25;2.95;;;;;;;16.61;91.51;98530.59;4980651;28;103451;-63
2021/07/29 03:13:28;;;;;;;2.72;2.53;;;;;;;16.63;91.39;98526.78;4970067;28;104490;-62
2021/07/29 03:15:56;;;;;;;2.70;2.50;;;;;;;16.66;90.87;98531.81;4962084;28;102735;-62
2021/07/29 03:18:24;;;;;;;3.92;2.95;;;;;;;16.66;90.77;98536.31;4977824;28;102599;-62
2021/07/29 03:20:52;;;;;;;2.53;2.33;;;;;;;16.62;90.95;98529.59;4981288;28;104486;-62
2021/07/29 03:23:22;;;;;;;2.45;2.25;;;;;;;16.60;90.65;98532.44;4976156;28;103864;-62
2021/07/29 03:25:51;;;;;;;2.70;2.50;;;;;;;16.54;91.01;98521.53;4977585;28;102557;-62
2021/07/29 03:28:20;;;;;;;4.78;3.22;;;;;;;16.41;91.67;98537.88;4976022;28;102715;-63
2021/07/29 03:30:48;;;;;;;4.28;2.95;;;;;;;16.31;92.16;98526.44;4958309;28;103675;-62
2021/07/29 03:33:16;;;;;;;4.10;3.30;;;;;;;16.35;92.14;98530.47;4976633;28;104849;-63
2021/07/29 03:35:44;;;;;;;7.15;3.80;;;;;;;16.32;92.05;98530.78;4966489;28;104134;-63
2021/07/29 03:38:13;;;;;;;2.90;2.70;;;;;;;16.25;93.30;98537.72;4964534;28;102844;-63
2021/07/29 03:40:42;;;;;;;3.30;2.90;;;;;;;16.34;92.75;98536.78;4982580;28;103335;-62
2021/07/29 03:43:11;;;;;;;2.60;2.40;;;;;;;16.39;92.16;98534.53;4976346;28;103129;-63
2021/07/29 03:45:43;;;;;;;3.65;2.70;;;;;;;16.37;92.34;98531.16;4971198;28;102583;-63
2021/07/29 03:48:12;;;;;;;2.80;2.60;;;;;;;16.37;92.34;98533.81;4966701;28;103015;-62
2021/07/29 03:50:41;;;;;;;3.30;3.00;;;;;;;16.37;92.32;98535.66;4976183;28;103960;-62
2021/07/29 03:53:09;;;;;;;2.40;2.20;;;;;;;16.34;92.85;98531.47;4959459;28;104583;-61
2021/07/29 03:55:38;;;;;;;2.90;2.70;;;;;;;16.30;92.86;98546.09;4968800;28;102606;-61
2021/07/29 03:58:07;;;;;;;4.55;3.60;;;;;;;16.25;92.87;98532.38;4973569;28;102763;-60
2021/07/29 04:00:35;;;;;;;3.25;2.95;;;;;;;16.24;93.66;98544.03;4969465;28;103382;-60
2021/07/29 04:03:06;;;;;;;4.90;3.78;;;;;;;16.23;93.48;98539.66;4975935;28;104010;-60
2021/07/29 04:05:34;;;;;;;4.03;3.60;;;;;;;16.31;93.35;98539.75;4960024;28;102611;-60
2021/07/29 04:08:02;;;;;;;4.60;3.95;;;;;;;16.36;92.34;98547.31;4968748;28;102674;-60
2021/07/29 04:10:30;;;;;;;3.83;3.53;;;;;;;16.42;92.17;98544.88;4964516;28;103847;-60
2021/07/29 04:12:58;;;;;;;4.25;3.85;;;;;;;16.48;92.06;98546.94;4965179;28;103660;-60
2021/07/29 04:15:28;;;;;;;3.95;3.50;;;;;;;16.50;92.33;98552.13;4984135;28;102695;-60
2021/07/29 04:17:56;;;;;;;4.20;3.83;;;;;;;16.53;91.83;98555.34;4962088;28;103031;-60
2021/07/29 04:20:24;;;;;;;3.60;3.30;;;;;;;16.59;91.59;98562.75;4955021;28;103740;-61
2021/07/29 04:22:52;;;;;;;4.70;3.70;;;;;;;16.66;91.09;98555.81;4958193;28;104476;-62
2021/07/29 04:25:20;;;;;;;4.18;3.70;;;;;;;16.68;90.79;98559.16;4956693;28;102744;-62
2021/07/29 04:27:48;;;;;;;4.10;3.80;;;;;;;16.73;90.72;98558.69;4980295;28;102870;-62
2021/07/29 04:30:17;;;;;;;6.07;3.85;;;;;;;16.72;90.83;98565.88;4962758;28;103348;-62
2021/07/29 04:32:47;;;;;;;4.38;3.55;;;;;;;16.77;90.57;98554.75;4976031;28;103192;-61
2021/07/29 04:35:15;;;;;;;3.70;3.40;;;;;;;16.84;90.49;98565.66;4978514;28;102714;-63
2021/07/29 04:37:43;;;;;;;3.13;2.92;;;;;;;16.87;90.28;98565.34;4975282;28;102676;-63
2021/07/29 04:40:13;;;;;;;5.38;3.95;;;;;;;16.88;90.05;98561.69;4976422;28;103386;-62
2021/07/29 04:42:41;;;;;;;5.47;3.92;;;;;;;16.86;90.05;98559.19;4960454;28;105623;-62
2021/07/29 04:45:10;;;;;;;3.60;3.30;;;;;;;16.88;89.99;98565.19;4978196;28;102599;-62
2021/07/29 04:47:38;;;;;;;3.40;3.10;;;;;;;16.98;89.35;98557.09;4979698;28;102657;-63
2021/07/29 04:50:08;;;;;;;3.88;3.47;;;;;;;17.06;89.12;98558.03;4969143;28;103303;-61
2021/07/29 04:52:36;;;;;;;7.18;3.55;;;;;;;17.05;88.94;98563.50;4963236;28;105918;-61
2021/07/29 04:55:05;;;;;;;4.80;3.53;;;;;;;17.06;89.09;98559.84;4978967;28;103147;-61
2021/07/29 04:57:33;;;;;;;5.05;3.60;;;;;;;17.08;88.91;98552.50;4980753;28;102852;-62
2021/07/29 05:00:01;;;;;;;3.85;3.55;;;;;;;17.07;88.69;98557.00;4960570;28;104489;-63
2021/07/29 05:02:29;;;;;;;3.63;3.33;;;;;;;17.18;88.71;98564.75;4955678;28;103191;-62
2021/07/29 05:04:58;;;;;;;3.88;3.58;;;;;;;17.27;88.13;98553.16;4974117;28;102614;-61
2021/07/29 05:07:27;;;;;;;2.80;2.60;;;;;;;17.28;87.64;98559.34;4957861;28;102789;-61
2021/07/29 05:09:56;;;;;;;3.22;2.92;;;;;;;17.38;87.66;98554.72;4958204;28;103452;-61
2021/07/29 05:12:24;;;;;;;4.93;3.55;;;;;;;17.45;87.05;98546.94;4968133;28;104413;-61
2021/07/29 05:14:56;;;;;;;3.13;2.92;;;;;;;17.51;87.39;98546.31;4973859;28;102705;-61
2021/07/29 05:17:24;;;;;;;5.50;3.20;;;;;;;17.56;87.04;98541.34;4978726;28;102657;-61
2021/07/29 05:19:53;;;;;;;4.25;3.47;;;;;;;17.63;86.87;98551.25;4955071;28;103196;-61
2021/07/29 05:22:21;;;;;;;3.33;3.03;;;;;;;17.69;86.76;98547.94;4981555;28;103238;-62
2021/07/29 05:24:50;;;;;;;3.72;3.42;;;;;;;17.63;87.30;98551.25;4980895;28;102630;-62
2021/07/29 05:27:18;;;;;;;3.45;3.15;;;;;;;17.70;86.96;98554.97;4981026;28;102647;-62
2021/07/29 05:29:47;;;;;;;3.75;3.35;;;;;;;17.71;87.36;98550.47;4969210;28;103423;-63
2021/07/29 05:32:15;;;;;;;4.35;3.58;;;;;;;17.79;86.91;98548.66;4963990;28;103241;-63
2021/07/29 05:34:43;;;;;;;3.22;3.03;;;;;;;17.83;86.50;98550.00;4978223;28;102603;-63
2021/07/29 05:37:11;;;;;;;5.95;3.42;;;;;;;17.78;87.59;98547.00;4965751;28;103206;-63
2021/07/29 05:39:40;;;;;;;4.90;3.40;;;;;;;17.78;87.64;98551.50;4972384;28;103375;-63
2021/07/29 05:42:09;;;;;;;4.10;3.35;;;;;;;17.94;85.70;98551.56;4956441;28;103272;-63
2021/07/29 05:44:37;;;;;;;3.40;3.10;;;;;;;18.11;85.26;98552.44;4964116;28;102602;-63
2021/07/29 05:47:05;;;;;;;3.25;2.95;;;;;;;18.36;84.28;98546.19;4974152;28;102932;-63
2021/07/29 05:49:33;;;;;;;3.40;2.92;;;;;;;18.61;82.90;98553.28;4958540;28;103360;-61
2021/07/29 05:52:01;;;;;;;3.72;2.95;;;;;;;18.78;82.44;98557.66;4973508;28;103406;-61
2021/07/29 05:54:29;;;;;;;4.97;3.20;;;;;;;18.90;82.69;98547.47;4973945;28;102652;-61
2021/07/29 05:56:58;;;;;;;5.50;2.75;;;;;;;19.06;81.75;98550.16;4972091;28;102735;-61
2021/07/29 05:59:28;;;;;;;5.32;2.92;;;;;;;19.31;80.69;98556.34;4978143;28;103972;-61
2021/07/29 06:01:56;;;;;;;3.17;2.88;;;;;;;19.30;80.64;98551.97;4969848;28;103241;-61
2021/07/29 06:04:24;;;;;;;4.15;2.85;;;;;;;19.39;80.67;98556.38;4978683;28;102603;-62
2021/07/29 06:06:52;;;;;;;5.13;3.03;;;;;;;19.44;79.98;98559.38;4969840;28;102826;-62
2021/07/29 06:09:21;;;;;;;5.07;2.85;;;;;;;19.55;79.64;98557.16;4977092;28;103356;-64
2021/07/29 06:11:49;;;;;;;3.13;2.85;;;;;;;19.52;79.88;98562.03;4963138;28;103489;-64
2021/07/29 06:14:17;;;;;;;3.35;2.90;;;;;;;19.58;79.54;98561.34;4960509;28;102730;-63
2021/07/29 06:16:47;;;;;;;5.05;2.90;;;;;;;19.65;79.62;98556.97;4977938;28;102838;-64
2021/07/29 06:19:18;;;;;;;3.92;3.10;;;;;;;19.63;78.34;98561.66;4974777;28;103380;-61
2021/07/29 06:21:46;;;;;;;4.70;2.80;;;;;;;19.72;78.30;98566.00;4976418;28;103195;-64
2021/07/29 06:24:14;;;;;;;3.60;3.30;;;;;;;19.68;78.75;98559.31;4971811;28;102531;-64
2021/07/29 06:26:42;;;;;;;3.50;2.55;;;;;;;19.77;78.28;98560.97;4971869;28;102762;-64
2021/07/29 06:29:10;;;;;;;3.28;2.97;;;;;;;19.80;77.96;98563.31;4961914;28;103506;-64
2021/07/29 06:31:39;;;;;;;2.85;2.55;;;;;;;19.85;77.79;98574.34;4969063;28;103295;-63
2021/07/29 06:34:08;;;;;;;4.25;2.83;;;;;;;19.81;77.21;98566.81;4960041;28;102763;-64
2021/07/29 06:36:36;;;;;;;2.55;2.35;;;;;;;19.89;76.73;98564.09;4970478;28;102751;-64
2021/07/29 06:39:05;;;;;;;3.97;2.85;;;;;;;19.79;77.13;98575.00;4973049;28;103557;-63
2021/07/29 06:41:33;;;;;;;2.70;2.50;;;;;;;19.93;77.27;98570.81;4971011;28;103310;-64
2021/07/29 06:44:01;;;;;;;2.63;2.38;;;;;;;19.92;76.65;98569.97;4969945;28;102736;-64
2021/07/29 06:46:29;;;;;;;4.05;2.60;;;;;;;20.15;76.10;98570.06;4950208;28;102965;-63
2021/07/29 06:48:58;;;;;;;2.80;2.55;;;;;;;20.21;74.97;98567.50;4962135;28;103373;-64
2021/07/29 06:51:27;;;;;;;2.75;2.50;;;;;;;20.28;75.55;98564.16;4974040;28;103754;-64
2021/07/29 06:53:55;;;;;;;2.97;2.35;;;;;;;20.42;73.34;98564.25;4975784;28;102889;-62
2021/07/29 06:56:23;;;;;;;3.10;2.90;;;;;;;20.54;72.13;98570.06;4970596;28;102770;-61
2021/07/29 06:58:52;;;;;;;2.38;2.17;;;;;;;20.78;72.98;98567.19;4971550;28;104061;-61
2021/07/29 07:01:20;;;;;;;6.45;2.42;;;;;;;20.89;71.99;98574.84;4977462;28;103160;-61
2021/07/29 07:03:48;;;;;;;2.55;2.30;;;;;;;20.87;71.67;98571.50;4978913;28;103887;-62
2021/07/29 07:06:17;;;;;;;6.05;2.75;;;;;;;20.91;71.64;98572.84;4985033;28;102885;-61
2021/07/29 07:08:46;;;;;;;2.85;2.50;;;;;;;21.06;70.46;98579.06;4983835;28;103305;-62
2021/07/29 07:11:18;;;;;;;2.58;2.30;;;;;;;21.21;69.80;98579.16;4984638;28;103193;-61
2021/07/29 07:13:48;;;;;;;7.88;2.47;;;;;;;21.45;69.16;98575.41;4961563;28;102716;-61
2021/07/29 07:16:17;;;;;;;3.03;2.53;;;;;;;21.55;67.69;98571.47;4984424;28;102785;-61
2021/07/29 07:18:45;;;;;;;2.35;2.15;;;;;;;21.72;67.14;98572.13;4984847;28;103327;-62
2021/07/29 07:21:13;;;;;;;3.05;2.40;;;;;;;21.43;66.33;98585.50;4983207;28;104377;-61
2021/07/29 07:23:42;;;;;;;2.83;2.50;;;;;;;21.45;67.10;98578.94;4967305;28;102721;-62
2021/07/29 07:26:19;;;;;;;4.65;2.78;;;;;;;22.04;66.26;98571.78;4976280;28;103762;-61
2021/07/29 07:28:48;;;;;;;3.33;2.40;;;;;;;22.13;66.44;98570.66;4974572;28;104040;-61
2021/07/29 07:31:17;;;;;;;4.05;2.28;;;;;;;22.56;65.56;98573.47;4980476;28;103325;-61
2021/07/29 07:33:46;;;;;;;2.53;2.33;;;;;;;22.51;63.00;98580.25;4983122;28;103141;-61
2021/07/29 07:36:17;;;;;;;6.00;2.70;;;;;;;22.83;63.82;98578.16;4982493;28;102855;-60
2021/07/29 07:38:45;;;;;;;3.65;2.58;;;;;;;22.71;63.70;98579.69;4968427;28;104464;-60
2021/07/29 07:41:14;;;;;;;4.28;2.40;;;;;;;22.57;64.05;98575.16;4971742;28;103144;-61
2021/07/29 07:43:43;;;;;;;3.03;2.28;;;;;;;22.58;64.35;98574.97;4972986;28;102820;-60
2021/07/29 07:46:11;;;;;;;3.35;2.70;;;;;;;22.71;64.99;98575.13;4971670;28;103230;-60
2021/07/29 07:48:40;;;;;;;3.75;2.75;;;;;;;22.34;66.43;98572.59;4975377;28;103453;-61
2021/07/29 07:51:10;;;;;;;5.85;2.95;;;;;;;22.00;66.39;98572.34;4979230;28;103168;-61
2021/07/29 07:53:41;;;;;;;3.47;2.83;;;;;;;22.20;66.00;98577.00;4939940;28;102643;-61
2021/07/29 07:56:11;;;;;;;2.92;2.72;;;;;;;21.85;66.55;98578.53;4977013;28;102907;-61
2021/07/29 07:58:45;;;;;;;3.03;2.72;;;;;;;22.12;65.59;98581.63;4976929;28;103515;-61
2021/07/29 08:01:15;;;;;;;3.85;3.00;;;;;;;21.89;65.87;98574.47;4959427;28;103793;-62
2021/07/29 08:03:44;;;;;;;4.35;2.63;;;;;;;21.97;65.98;98581.63;4960039;28;102789;-61
2021/07/29 08:06:12;;;;;;;3.13;2.85;;;;;;;21.73;66.63;98573.78;4981875;28;102888;-62
2021/07/29 08:08:42;;;;;;;5.88;2.75;;;;;;;21.58;66.79;98578.31;4976405;28;104023;-61
2021/07/29 08:11:11;;;;;;;3.28;2.65;;;;;;;21.63;66.99;98575.91;4980417;28;103474;-62
2021/07/29 08:13:39;;;;;;;3.10;2.75;;;;;;;21.92;66.70;98578.66;4979502;28;102615;-62
2021/07/29 08:16:09;;;;;;;4.95;3.28;;;;;;;22.07;66.46;98579.47;4978639;28;102780;-62
2021/07/29 08:18:37;;;;;;;4.10;3.00;;;;;;;22.17;67.48;98582.75;4961021;28;103630;-61
2021/07/29 08:21:12;;;;;;;5.65;3.05;;;;;;;22.60;64.67;98572.09;4980858;28;103656;-62
2021/07/29 08:23:40;;;;;;;3.08;2.78;;;;;;;23.39;63.37;98569.19;4963748;28;102681;-62
2021/07/29 08:26:11;;;;;;;2.92;2.30;;;;;;;24.44;61.07;98569.88;4977267;28;102816;-62
2021/07/29 08:28:40;;;;;;;3.10;2.80;;;;;;;24.60;59.27;98565.97;4975202;28;103509;-62
2021/07/29 08:31:12;;;;;;;2.72;2.53;;;;;;;24.87;59.67;98569.63;4977358;28;103443;-62
2021/07/29 08:33:41;;;;;;;5.75;3.05;;;;;;;24.84;56.44;98557.34;4977968;28;102645;-63
2021/07/29 08:36:13;;;;;;;3.95;3.08;;;;;;;24.26;59.00;98566.88;4981011;28;102806;-62
2021/07/29 08:38:42;;;;;;;4.30;2.97;;;;;;;23.99;59.25;98567.75;4962262;28;103478;-63
2021/07/29 08:41:10;;;;;;;3.72;2.67;;;;;;;23.49;59.91;98567.00;4960454;28;104012;-62
2021/07/29 08:43:39;;;;;;;4.07;2.97;;;;;;;23.66;59.47;98565.66;4980415;28;102725;-62
2021/07/29 08:46:09;;;;;;;4.05;2.88;;;;;;;23.50;59.41;98557.88;4981354;28;102806;-62
2021/07/29 08:48:44;;;;;;;6.05;3.08;;;;;;;23.43;59.92;98565.09;4981002;28;103212;-62
2021/07/29 08:51:15;;;;;;;4.32;2.70;;;;;;;23.27;61.38;98575.28;4980271;28;103223;-62
2021/07/29 08:53:44;;;;;;;3.45;3.20;;;;;;;22.65;64.44;98575.91;4944515;28;103080;-61
2021/07/29 08:56:15;;;;;;;3.55;2.63;;;;;;;23.15;63.75;98577.66;4980312;28;102787;-61
2021/07/29 08:58:43;;;;;;;4.68;2.88;;;;;;;23.62;63.07;98569.78;4962825;28;103500;-62
2021/07/29 09:01:12;;;;;;;3.65;3.05;;;;;;;23.11;62.40;98587.16;4980444;28;103156;-62
2021/07/29 09:03:44;;;;;;;3.72;3.00;;;;;;;23.07;64.45;98580.50;4978972;28;102811;-63
2021/07/29 09:06:14;;;;;;;4.53;3.10;;;;;;;23.13;62.52;98578.88;4962660;28;102740;-62
2021/07/29 09:08:44;;;;;;;3.20;2.90;;;;;;;24.57;58.30;98578.00;4960015;28;103449;-62
2021/07/29 09:11:34;;;;;;;3.60;2.80;;;;;;;24.29;60.41;98577.28;4982142;28;103861;-62
2021/07/29 09:14:11;;;;;;;2.95;2.72;;;;;;;25.63;59.02;98577.16;4981203;28;102684;-61
2021/07/29 09:16:56;;;;;;;4.10;3.08;;;;;;;26.44;54.25;98573.03;4962049;28;102606;-61
2021/07/29 09:19:37;;;;;;;4.15;3.20;;;;;;;26.26;50.86;98566.66;4959895;28;103297;-61
2021/07/29 09:22:07;;;;;;;3.42;3.00;;;;;;;24.87;53.80;98569.63;4976382;28;104183;-62
2021/07/29 09:24:36;;;;;;;3.80;3.50;;;;;;;24.93;54.86;98580.41;4960713;28;103054;-62
2021/07/29 09:27:04;;;;;;;2.97;2.67;;;;;;;24.60;56.22;98574.91;4979596;28;102631;-61
2021/07/29 09:29:33;;;;;;;3.83;2.88;;;;;;;25.28;55.04;98570.28;4958838;28;104352;-62
2021/07/29 09:32:10;;;;;;;3.65;2.65;;;;;;;26.08;52.70;98567.31;4977591;28;103447;-61
2021/07/29 09:34:47;;;;;;;3.47;2.75;;;;;;;26.05;51.86;98569.63;4980819;28;102590;-63
2021/07/29 09:37:17;;;;;;;4.07;2.92;;;;;;;26.62;50.37;98571.50;4981268;28;102627;-62
2021/07/29 09:39:47;;;;;;;3.95;3.55;;;;;;;26.04;52.39;98570.66;4960511;28;103392;-61
2021/07/29 09:42:21;;;;;;;3.33;3.13;;;;;;;25.99;52.73;98570.47;4980041;28;103239;-61
2021/07/29 09:44:51;;;;;;;4.75;2.72;;;;;;;25.23;52.50;98580.91;4978842;28;102706;-61
2021/07/29 09:47:19;;;;;;;3.22;2.92;;;;;;;24.93;53.21;98574.19;4980422;28;102661;-62
2021/07/29 09:49:51;;;;;;;2.97;2.78;;;;;;;24.30;54.01;98578.94;4979537;28;103366;-62
2021/07/29 09:52:20;;;;;;;5.25;3.03;;;;;;;23.93;53.28;98576.63;4980207;28;103911;-61
2021/07/29 09:54:48;;;;;;;6.07;3.47;;;;;;;24.60;52.16;98566.81;4963125;28;103054;-61
2021/07/29 09:57:19;;;;;;;3.05;2.63;;;;;;;24.52;53.07;98572.38;4981646;28;103011;-62
2021/07/29 09:59:47;;;;;;;3.75;3.03;;;;;;;24.84;52.99;98564.63;4978435;28;104504;-62
2021/07/29 10:02:15;;;;;;;3.83;3.10;;;;;;;25.05;51.28;98561.72;4976156;28;103075;-62
2021/07/29 10:04:48;;;;;;;4.03;3.40;;;;;;;25.71;48.67;98552.59;4963135;28;102756;-62
2021/07/29 10:07:27;;;;;;;3.63;3.28;;;;;;;26.04;48.83;98540.88;4963347;28;102888;-62
2021/07/29 10:09:59;;;;;;;4.13;2.95;;;;;;;25.49;49.42;98542.25;4978167;28;103232;-62
2021/07/29 10:12:30;;;;;;;5.07;3.25;;;;;;;26.59;48.73;98534.84;4978706;28;103093;-62
2021/07/29 10:15:00;;;;;;;3.20;2.90;;;;;;;26.16;49.57;98541.94;4978703;28;102648;-61
2021/07/29 10:17:56;;;;;;;4.68;3.30;;;;;;;25.99;49.54;98541.53;4980396;28;102680;-61
2021/07/29 10:20:32;;;;;;;3.78;3.13;;;;;;;26.95;47.54;98532.34;4977822;28;104625;-64
2021/07/29 10:23:35;;;;;;;4.05;2.53;;;;;;;26.61;46.82;98538.16;4979108;28;103111;-62
2021/07/29 10:26:08;;;;;;;3.40;3.00;;;;;;;25.11;49.10;98533.88;4978675;28;102625;-62
2021/07/29 10:28:39;;;;;;;3.00;2.75;;;;;;;25.80;49.95;98534.28;4979728;28;103147;-62
2021/07/29 10:31:13;;;;;;;3.60;3.15;;;;;;;24.82;49.47;98539.66;4958483;28;103417;-61
2021/07/29 10:33:43;;;;;;;3.40;3.10;;;;;;;25.69;48.06;98538.47;4978412;28;104411;-61
2021/07/29 10:36:48;;;;;;;3.53;3.20;;;;;;;26.45;47.06;98533.25;4963690;28;102558;-61
2021/07/29 10:39:18;;;;;;;4.40;4.00;;;;;;;26.81;46.35;98527.25;4916137;28;102821;-62
2021/07/29 10:41:57;;;;;;;5.55;3.88;;;;;;;26.74;46.53;98521.84;4918419;28;103439;-61
2021/07/29 10:44:45;;;;;;;4.28;3.92;;;;;;;26.71;44.78;98525.00;4953780;28;103136;-61
2021/07/29 10:47:18;;;;;;;4.28;3.60;;;;;;;27.50;44.16;98521.75;4980263;28;102633;-62
2021/07/29 10:50:17;;;;;;;5.55;3.78;;;;;;;27.60;46.09;98530.19;4980828;28;104500;-61
2021/07/29 10:52:48;;;;;;;3.67;3.35;;;;;;;27.76;45.62;98524.22;4965341;28;103419;-61
2021/07/29 10:55:19;;;;;;;4.70;3.80;;;;;;;27.68;43.22;98524.47;4980755;28;103220;-61
2021/07/29 10:58:08;;;;;;;4.40;4.10;;;;;;;27.20;43.96;98526.16;4981583;28;102649;-61
2021/07/29 11:00:37;;;;;;;4.95;3.67;;;;;;;28.08;43.73;98519.47;4983491;28;102585;-62
2021/07/29 11:03:20;;;;;;;5.35;4.32;;;;;;;27.85;44.42;98514.69;4970414;28;103291;-62
2021/07/29 11:05:54;;;;;;;4.50;4.07;;;;;;;27.20;42.87;98505.25;4968137;28;103209;-62
2021/07/29 11:08:27;;;;;;;5.57;4.00;;;;;;;28.13;43.85;98520.47;4972370;28;103922;-63
2021/07/29 11:11:00;;;;;;;4.90;4.00;;;;;;;26.98;45.45;98512.94;4977372;28;102680;-61
2021/07/29 11:13:29;;;;;;;3.80;3.42;;;;;;;26.22;47.36;98516.69;4964060;28;103252;-63
2021/07/29 11:16:01;;;;;;;3.55;3.25;;;;;;;25.63;49.22;98506.84;4952736;28;105795;-62
2021/07/29 11:18:29;;;;;;;3.97;3.35;;;;;;;26.65;48.07;98509.59;4980897;28;102622;-62
2021/07/29 11:20:58;;;;;;;4.18;3.78;;;;;;;26.59;47.25;98507.75;4970455;28;102928;-62
2021/07/29 11:23:36;;;;;;;5.25;3.80;;;;;;;26.30;49.37;98502.94;4964511;28;103463;-62
2021/07/29 11:26:06;;;;;;;4.18;3.55;;;;;;;27.30;46.26;98500.19;4959275;28;103517;-62
2021/07/29 11:28:35;;;;;;;3.70;3.40;;;;;;;27.30;45.66;98500.19;4978164;28;102748;-61
2021/07/29 11:31:19;;;;;;;3.78;3.47;;;;;;;26.56;45.20;98501.94;4980250;28;102676;-61
2021/07/29 11:33:52;;;;;;;4.30;3.88;;;;;;;25.97;46.81;98496.75;4981309;28;103361;-62
2021/07/29 11:36:20;;;;;;;4.22;3.67;;;;;;;27.51;46.01;98496.25;4956432;28;103383;-61
2021/07/29 11:39:00;;;;;;;3.65;3.35;;;;;;;28.20;43.75;98493.22;4973378;28;102723;-62